sensor_id;sensor_type;location;lat;lon;timestamp;P1;durP1;ratioP1;P2;durP2;ratioP2
34296;SDS011;20564;42.902;25.336;2023-03-14T00:02:15;2.47;;;0.70;;
34296;SDS011;20564;42.902;25.336;2023-03-14T00:04:53;2.47;;;0.47;;
34296;SDS011;20564;42.902;25.336;2023-03-14T00:07:48;1.77;;;0.60;;
34296;SDS011;20564;42.902;25.336;2023-03-14T00:12:51;0.57;;;0.30;;
34296;SDS011;20564;42.902;25.336;2023-03-14T00:15:19;1.45;;;0.68;;
34296;SDS011;20564;42.902;25.336;2023-03-14T00:17:46;3.95;;;0.85;;
34296;SDS011;20564;42.902;25.336;2023-03-14T00:20:13;3.85;;;1.00;;
34296;SDS011;20564;42.902;25.336;2023-03-14T00:22:41;2.55;;;0.50;;
34296;SDS011;20564;42.902;25.336;2023-03-14T00:25:09;3.20;;;0.75;;
34296;SDS011;20564;42.902;25.336;2023-03-14T00:27:38;1.00;;;0.38;;
34296;SDS011;20564;42.902;25.336;2023-03-14T00:30:10;1.00;;;0.50;;
34296;SDS011;20564;42.902;25.336;2023-03-14T00:33:13;0.95;;;0.32;;
34296;SDS011;20564;42.902;25.336;2023-03-14T00:36:04;3.35;;;0.50;;
34296;SDS011;20564;42.902;25.336;2023-03-14T00:38:40;0.90;;;0.40;;
34296;SDS011;20564;42.902;25.336;2023-03-14T00:41:14;1.42;;;0.38;;
34296;SDS011;20564;42.902;25.336;2023-03-14T00:43:57;2.25;;;0.60;;
34296;SDS011;20564;42.902;25.336;2023-03-14T00:46:28;1.95;;;0.50;;
34296;SDS011;20564;42.902;25.336;2023-03-14T00:49:11;1.20;;;0.45;;
34296;SDS011;20564;42.902;25.336;2023-03-14T00:51:42;2.85;;;0.50;;
34296;SDS011;20564;42.902;25.336;2023-03-14T00:54:12;0.63;;;0.43;;
34296;SDS011;20564;42.902;25.336;2023-03-14T00:56:41;2.53;;;0.82;;
34296;SDS011;20564;42.902;25.336;2023-03-14T00:59:10;1.48;;;0.30;;
34296;SDS011;20564;42.902;25.336;2023-03-14T01:01:42;3.10;;;0.60;;
34296;SDS011;20564;42.902;25.336;2023-03-14T01:04:11;1.27;;;0.50;;
34296;SDS011;20564;42.902;25.336;2023-03-14T01:06:43;1.83;;;0.55;;
34296;SDS011;20564;42.902;25.336;2023-03-14T01:09:14;1.75;;;0.30;;
34296;SDS011;20564;42.902;25.336;2023-03-14T01:11:45;0.93;;;0.20;;
34296;SDS011;20564;42.902;25.336;2023-03-14T01:14:13;1.13;;;0.30;;
34296;SDS011;20564;42.902;25.336;2023-03-14T01:16:43;1.08;;;0.40;;
34296;SDS011;20564;42.902;25.336;2023-03-14T01:19:11;0.60;;;0.25;;
34296;SDS011;20564;42.902;25.336;2023-03-14T01:21:41;1.20;;;0.40;;
34296;SDS011;20564;42.902;25.336;2023-03-14T01:24:10;0.60;;;0.40;;
34296;SDS011;20564;42.902;25.336;2023-03-14T01:26:44;1.27;;;0.30;;
34296;SDS011;20564;42.902;25.336;2023-03-14T01:29:12;1.08;;;0.28;;
34296;SDS011;20564;42.902;25.336;2023-03-14T01:31:41;2.53;;;0.70;;
34296;SDS011;20564;42.902;25.336;2023-03-14T01:34:13;3.05;;;0.35;;
34296;SDS011;20564;42.902;25.336;2023-03-14T01:36:42;1.35;;;0.28;;
34296;SDS011;20564;42.902;25.336;2023-03-14T01:39:16;1.20;;;0.40;;
34296;SDS011;20564;42.902;25.336;2023-03-14T01:41:43;2.65;;;0.60;;
34296;SDS011;20564;42.902;25.336;2023-03-14T01:44:11;0.50;;;0.30;;
34296;SDS011;20564;42.902;25.336;2023-03-14T01:46:42;0.85;;;0.45;;
34296;SDS011;20564;42.902;25.336;2023-03-14T01:54:27;0.52;;;0.30;;
34296;SDS011;20564;42.902;25.336;2023-03-14T01:57:16;1.08;;;0.50;;
34296;SDS011;20564;42.902;25.336;2023-03-14T01:59:49;2.17;;;0.47;;
34296;SDS011;20564;42.902;25.336;2023-03-14T02:02:21;0.98;;;0.30;;
34296;SDS011;20564;42.902;25.336;2023-03-14T02:04:52;1.90;;;0.50;;
34296;SDS011;20564;42.902;25.336;2023-03-14T02:07:26;1.73;;;0.98;;
34296;SDS011;20564;42.902;25.336;2023-03-14T02:10:01;1.80;;;0.70;;
34296;SDS011;20564;42.902;25.336;2023-03-14T02:12:30;1.00;;;0.40;;
34296;SDS011;20564;42.902;25.336;2023-03-14T02:14:59;0.35;;;0.15;;
34296;SDS011;20564;42.902;25.336;2023-03-14T02:17:26;2.28;;;0.40;;
34296;SDS011;20564;42.902;25.336;2023-03-14T02:22:56;0.88;;;0.17;;
34296;SDS011;20564;42.902;25.336;2023-03-14T02:28:15;0.40;;;0.20;;
34296;SDS011;20564;42.902;25.336;2023-03-14T02:30:43;0.90;;;0.25;;
34296;SDS011;20564;42.902;25.336;2023-03-14T02:33:12;0.40;;;0.20;;
34296;SDS011;20564;42.902;25.336;2023-03-14T02:35:50;0.45;;;0.25;;
34296;SDS011;20564;42.902;25.336;2023-03-14T02:38:45;1.20;;;0.25;;
34296;SDS011;20564;42.902;25.336;2023-03-14T02:41:24;0.32;;;0.10;;
34296;SDS011;20564;42.902;25.336;2023-03-14T02:44:30;0.40;;;0.15;;
34296;SDS011;20564;42.902;25.336;2023-03-14T02:47:16;2.53;;;0.30;;
34296;SDS011;20564;42.902;25.336;2023-03-14T02:50:01;3.85;;;0.45;;
34296;SDS011;20564;42.902;25.336;2023-03-14T02:53:03;2.08;;;0.50;;
34296;SDS011;20564;42.902;25.336;2023-03-14T02:55:44;0.40;;;0.30;;
34296;SDS011;20564;42.902;25.336;2023-03-14T02:58:15;2.47;;;0.93;;
34296;SDS011;20564;42.902;25.336;2023-03-14T03:00:58;0.90;;;0.57;;
34296;SDS011;20564;42.902;25.336;2023-03-14T03:03:27;2.40;;;0.73;;
34296;SDS011;20564;42.902;25.336;2023-03-14T03:05:57;1.67;;;0.88;;
34296;SDS011;20564;42.902;25.336;2023-03-14T03:11:07;2.50;;;0.55;;
34296;SDS011;20564;42.902;25.336;2023-03-14T03:13:37;0.45;;;0.20;;
34296;SDS011;20564;42.902;25.336;2023-03-14T03:18:34;0.88;;;0.50;;
34296;SDS011;20564;42.902;25.336;2023-03-14T03:21:04;0.10;;;0.10;;
34296;SDS011;20564;42.902;25.336;2023-03-14T03:23:34;0.85;;;0.38;;
34296;SDS011;20564;42.902;25.336;2023-03-14T03:26:22;0.88;;;0.40;;
34296;SDS011;20564;42.902;25.336;2023-03-14T03:28:55;0.68;;;0.35;;
34296;SDS011;20564;42.902;25.336;2023-03-14T03:31:32;0.80;;;0.28;;
34296;SDS011;20564;42.902;25.336;2023-03-14T03:34:05;1.00;;;0.38;;
34296;SDS011;20564;42.902;25.336;2023-03-14T03:36:36;0.55;;;0.30;;
34296;SDS011;20564;42.902;25.336;2023-03-14T03:39:07;2.20;;;0.47;;
34296;SDS011;20564;42.902;25.336;2023-03-14T03:41:40;0.30;;;0.20;;
34296;SDS011;20564;42.902;25.336;2023-03-14T03:44:15;1.10;;;0.20;;
34296;SDS011;20564;42.902;25.336;2023-03-14T03:46:51;0.70;;;0.40;;
34296;SDS011;20564;42.902;25.336;2023-03-14T03:49:30;0.70;;;0.40;;
34296;SDS011;20564;42.902;25.336;2023-03-14T03:52:04;1.20;;;0.60;;
34296;SDS011;20564;42.902;25.336;2023-03-14T03:54:37;0.70;;;0.35;;
34296;SDS011;20564;42.902;25.336;2023-03-14T03:57:10;1.05;;;0.50;;
34296;SDS011;20564;42.902;25.336;2023-03-14T03:59:38;2.45;;;0.73;;
34296;SDS011;20564;42.902;25.336;2023-03-14T04:02:09;1.05;;;0.55;;
34296;SDS011;20564;42.902;25.336;2023-03-14T04:04:38;2.20;;;0.80;;
34296;SDS011;20564;42.902;25.336;2023-03-14T04:07:18;1.90;;;0.88;;
34296;SDS011;20564;42.902;25.336;2023-03-14T04:09:53;1.55;;;0.40;;
34296;SDS011;20564;42.902;25.336;2023-03-14T04:12:21;0.93;;;0.22;;
34296;SDS011;20564;42.902;25.336;2023-03-14T04:14:48;1.17;;;0.40;;
34296;SDS011;20564;42.902;25.336;2023-03-14T04:17:15;2.70;;;0.57;;
34296;SDS011;20564;42.902;25.336;2023-03-14T04:19:48;3.15;;;1.10;;
34296;SDS011;20564;42.902;25.336;2023-03-14T04:22:24;1.50;;;0.57;;
34296;SDS011;20564;42.902;25.336;2023-03-14T04:24:54;2.42;;;1.40;;
34296;SDS011;20564;42.902;25.336;2023-03-14T04:27:23;2.50;;;1.10;;
34296;SDS011;20564;42.902;25.336;2023-03-14T04:29:50;4.00;;;1.33;;
34296;SDS011;20564;42.902;25.336;2023-03-14T04:32:17;4.20;;;1.20;;
34296;SDS011;20564;42.902;25.336;2023-03-14T04:34:45;9.70;;;2.70;;
34296;SDS011;20564;42.902;25.336;2023-03-14T04:37:12;7.47;;;1.45;;
34296;SDS011;20564;42.902;25.336;2023-03-14T04:39:39;5.18;;;1.02;;
34296;SDS011;20564;42.902;25.336;2023-03-14T04:42:06;1.67;;;0.80;;
34296;SDS011;20564;42.902;25.336;2023-03-14T04:44:33;6.50;;;3.08;;
34296;SDS011;20564;42.902;25.336;2023-03-14T04:47:04;2.33;;;0.90;;
34296;SDS011;20564;42.902;25.336;2023-03-14T04:49:33;2.92;;;1.13;;
34296;SDS011;20564;42.902;25.336;2023-03-14T04:54:38;1.27;;;0.70;;
34296;SDS011;20564;42.902;25.336;2023-03-14T04:57:08;3.40;;;1.30;;
34296;SDS011;20564;42.902;25.336;2023-03-14T04:59:38;3.17;;;1.85;;
34296;SDS011;20564;42.902;25.336;2023-03-14T05:02:07;6.03;;;1.95;;
34296;SDS011;20564;42.902;25.336;2023-03-14T05:04:36;3.85;;;1.27;;
34296;SDS011;20564;42.902;25.336;2023-03-14T05:07:06;4.47;;;1.48;;
34296;SDS011;20564;42.902;25.336;2023-03-14T05:09:43;3.67;;;1.75;;
34296;SDS011;20564;42.902;25.336;2023-03-14T05:12:31;3.95;;;1.30;;
34296;SDS011;20564;42.902;25.336;2023-03-14T05:15:28;2.45;;;0.75;;
34296;SDS011;20564;42.902;25.336;2023-03-14T05:17:58;4.65;;;1.95;;
34296;SDS011;20564;42.902;25.336;2023-03-14T05:20:38;2.33;;;0.70;;
34296;SDS011;20564;42.902;25.336;2023-03-14T05:23:19;2.88;;;1.20;;
34296;SDS011;20564;42.902;25.336;2023-03-14T05:25:52;2.30;;;0.52;;
34296;SDS011;20564;42.902;25.336;2023-03-14T05:28:24;1.40;;;0.38;;
34296;SDS011;20564;42.902;25.336;2023-03-14T05:30:53;1.38;;;0.60;;
34296;SDS011;20564;42.902;25.336;2023-03-14T05:33:39;1.38;;;0.60;;
34296;SDS011;20564;42.902;25.336;2023-03-14T05:36:06;3.78;;;0.75;;
34296;SDS011;20564;42.902;25.336;2023-03-14T05:38:35;1.42;;;0.60;;
34296;SDS011;20564;42.902;25.336;2023-03-14T05:41:05;1.83;;;0.52;;
34296;SDS011;20564;42.902;25.336;2023-03-14T05:43:35;2.72;;;0.88;;
34296;SDS011;20564;42.902;25.336;2023-03-14T05:46:17;2.03;;;0.73;;
34296;SDS011;20564;42.902;25.336;2023-03-14T05:48:59;3.13;;;0.88;;
34296;SDS011;20564;42.902;25.336;2023-03-14T05:51:28;3.08;;;1.10;;
34296;SDS011;20564;42.902;25.336;2023-03-14T05:56:48;4.18;;;1.55;;
34296;SDS011;20564;42.902;25.336;2023-03-14T05:59:19;4.68;;;1.38;;
34296;SDS011;20564;42.902;25.336;2023-03-14T06:01:53;4.78;;;1.55;;
34296;SDS011;20564;42.902;25.336;2023-03-14T06:04:21;4.90;;;2.28;;
34296;SDS011;20564;42.902;25.336;2023-03-14T06:06:52;8.85;;;2.88;;
34296;SDS011;20564;42.902;25.336;2023-03-14T06:09:21;9.88;;;2.63;;
34296;SDS011;20564;42.902;25.336;2023-03-14T06:11:58;5.88;;;2.00;;
34296;SDS011;20564;42.902;25.336;2023-03-14T06:14:41;5.35;;;1.80;;
34296;SDS011;20564;42.902;25.336;2023-03-14T06:17:09;7.47;;;2.20;;
34296;SDS011;20564;42.902;25.336;2023-03-14T06:19:46;6.45;;;2.00;;
34296;SDS011;20564;42.902;25.336;2023-03-14T06:22:38;4.43;;;2.10;;
34296;SDS011;20564;42.902;25.336;2023-03-14T06:25:15;5.88;;;1.90;;
34296;SDS011;20564;42.902;25.336;2023-03-14T06:27:49;5.97;;;2.00;;
34296;SDS011;20564;42.902;25.336;2023-03-14T06:30:22;5.90;;;2.08;;
34296;SDS011;20564;42.902;25.336;2023-03-14T06:32:54;5.32;;;2.13;;
34296;SDS011;20564;42.902;25.336;2023-03-14T06:35:29;6.40;;;2.67;;
34296;SDS011;20564;42.902;25.336;2023-03-14T06:38:01;9.63;;;3.00;;
34296;SDS011;20564;42.902;25.336;2023-03-14T06:40:29;7.82;;;3.22;;
34296;SDS011;20564;42.902;25.336;2023-03-14T06:43:01;11.60;;;3.42;;
34296;SDS011;20564;42.902;25.336;2023-03-14T06:45:29;10.55;;;2.92;;
34296;SDS011;20564;42.902;25.336;2023-03-14T06:47:59;7.75;;;2.53;;
34296;SDS011;20564;42.902;25.336;2023-03-14T06:50:30;5.18;;;1.70;;
34296;SDS011;20564;42.902;25.336;2023-03-14T06:53:00;6.85;;;2.22;;
34296;SDS011;20564;42.902;25.336;2023-03-14T06:55:29;8.85;;;2.90;;
34296;SDS011;20564;42.902;25.336;2023-03-14T06:58:00;5.75;;;2.05;;
34296;SDS011;20564;42.902;25.336;2023-03-14T07:00:46;5.68;;;2.25;;
34296;SDS011;20564;42.902;25.336;2023-03-14T07:03:15;4.43;;;1.65;;
34296;SDS011;20564;42.902;25.336;2023-03-14T07:05:48;8.40;;;2.95;;
34296;SDS011;20564;42.902;25.336;2023-03-14T07:08:18;7.25;;;2.92;;
34296;SDS011;20564;42.902;25.336;2023-03-14T07:10:52;9.45;;;3.05;;
34296;SDS011;20564;42.902;25.336;2023-03-14T07:13:23;8.15;;;2.58;;
34296;SDS011;20564;42.902;25.336;2023-03-14T07:15:51;9.20;;;3.80;;
34296;SDS011;20564;42.902;25.336;2023-03-14T07:18:19;11.05;;;3.03;;
34296;SDS011;20564;42.902;25.336;2023-03-14T07:20:53;9.55;;;3.03;;
34296;SDS011;20564;42.902;25.336;2023-03-14T07:23:24;8.88;;;3.63;;
34296;SDS011;20564;42.902;25.336;2023-03-14T07:25:51;9.40;;;2.70;;
34296;SDS011;20564;42.902;25.336;2023-03-14T07:28:20;6.03;;;2.63;;
34296;SDS011;20564;42.902;25.336;2023-03-14T07:30:53;10.02;;;4.05;;
34296;SDS011;20564;42.902;25.336;2023-03-14T07:33:22;8.77;;;3.58;;
34296;SDS011;20564;42.902;25.336;2023-03-14T07:35:53;8.15;;;2.42;;
34296;SDS011;20564;42.902;25.336;2023-03-14T07:38:20;10.10;;;2.97;;
34296;SDS011;20564;42.902;25.336;2023-03-14T07:43:16;4.95;;;2.17;;
34296;SDS011;20564;42.902;25.336;2023-03-14T07:45:46;6.38;;;1.90;;
34296;SDS011;20564;42.902;25.336;2023-03-14T07:48:24;3.85;;;1.90;;
34296;SDS011;20564;42.902;25.336;2023-03-14T07:51:01;3.97;;;1.60;;
34296;SDS011;20564;42.902;25.336;2023-03-14T07:53:29;5.70;;;1.87;;
34296;SDS011;20564;42.902;25.336;2023-03-14T07:55:55;5.60;;;2.07;;
34296;SDS011;20564;42.902;25.336;2023-03-14T07:58:23;6.75;;;2.15;;
34296;SDS011;20564;42.902;25.336;2023-03-14T08:00:50;6.95;;;2.17;;
34296;SDS011;20564;42.902;25.336;2023-03-14T08:03:20;4.15;;;1.20;;
34296;SDS011;20564;42.902;25.336;2023-03-14T08:05:49;3.35;;;1.50;;
34296;SDS011;20564;42.902;25.336;2023-03-14T08:08:17;4.75;;;1.70;;
34296;SDS011;20564;42.902;25.336;2023-03-14T08:10:45;6.50;;;2.00;;
34296;SDS011;20564;42.902;25.336;2023-03-14T08:13:13;5.60;;;2.05;;
34296;SDS011;20564;42.902;25.336;2023-03-14T08:15:41;3.47;;;1.27;;
34296;SDS011;20564;42.902;25.336;2023-03-14T08:18:15;4.28;;;1.27;;
34296;SDS011;20564;42.902;25.336;2023-03-14T08:20:46;5.55;;;0.98;;
34296;SDS011;20564;42.902;25.336;2023-03-14T08:23:20;6.40;;;2.22;;
34296;SDS011;20564;42.902;25.336;2023-03-14T08:25:53;6.32;;;2.25;;
34296;SDS011;20564;42.902;25.336;2023-03-14T08:33:16;4.55;;;1.63;;
34296;SDS011;20564;42.902;25.336;2023-03-14T08:35:44;5.80;;;2.05;;
34296;SDS011;20564;42.902;25.336;2023-03-14T08:38:14;5.05;;;1.75;;
34296;SDS011;20564;42.902;25.336;2023-03-14T08:40:41;6.15;;;1.92;;
34296;SDS011;20564;42.902;25.336;2023-03-14T08:43:10;1.08;;;0.68;;
34296;SDS011;20564;42.902;25.336;2023-03-14T08:45:41;0.50;;;0.32;;
34296;SDS011;20564;42.902;25.336;2023-03-14T08:48:11;1.38;;;0.30;;
34296;SDS011;20564;42.902;25.336;2023-03-14T08:50:42;1.02;;;0.45;;
34296;SDS011;20564;42.902;25.336;2023-03-14T08:53:28;2.35;;;0.38;;
34296;SDS011;20564;42.902;25.336;2023-03-14T08:56:00;3.17;;;0.40;;
34296;SDS011;20564;42.902;25.336;2023-03-14T08:58:29;1.80;;;0.52;;
34296;SDS011;20564;42.902;25.336;2023-03-14T09:00:58;1.15;;;0.30;;
34296;SDS011;20564;42.902;25.336;2023-03-14T09:03:26;3.33;;;0.60;;
34296;SDS011;20564;42.902;25.336;2023-03-14T09:06:06;2.20;;;0.80;;
34296;SDS011;20564;42.902;25.336;2023-03-14T09:08:42;1.10;;;1.00;;
34296;SDS011;20564;42.902;25.336;2023-03-14T09:11:14;2.45;;;0.32;;
34296;SDS011;20564;42.902;25.336;2023-03-14T09:13:41;0.40;;;0.30;;
34296;SDS011;20564;42.902;25.336;2023-03-14T09:16:16;0.57;;;0.20;;
34296;SDS011;20564;42.902;25.336;2023-03-14T09:18:50;0.68;;;0.28;;
34296;SDS011;20564;42.902;25.336;2023-03-14T09:21:21;1.02;;;0.52;;
34296;SDS011;20564;42.902;25.336;2023-03-14T09:23:58;4.07;;;1.30;;
34296;SDS011;20564;42.902;25.336;2023-03-14T09:26:30;5.50;;;1.70;;
34296;SDS011;20564;42.902;25.336;2023-03-14T09:29:00;6.57;;;2.47;;
34296;SDS011;20564;42.902;25.336;2023-03-14T09:31:30;0.40;;;0.32;;
34296;SDS011;20564;42.902;25.336;2023-03-14T09:34:03;1.25;;;0.73;;
34296;SDS011;20564;42.902;25.336;2023-03-14T09:36:46;3.08;;;0.90;;
34296;SDS011;20564;42.902;25.336;2023-03-14T09:39:15;1.65;;;0.77;;
34296;SDS011;20564;42.902;25.336;2023-03-14T09:41:50;3.22;;;0.70;;
34296;SDS011;20564;42.902;25.336;2023-03-14T09:44:28;2.58;;;0.43;;
34296;SDS011;20564;42.902;25.336;2023-03-14T09:47:02;4.00;;;1.02;;
34296;SDS011;20564;42.902;25.336;2023-03-14T09:49:40;4.70;;;1.50;;
34296;SDS011;20564;42.902;25.336;2023-03-14T09:54:51;3.83;;;1.65;;
34296;SDS011;20564;42.902;25.336;2023-03-14T09:57:25;5.10;;;1.48;;
34296;SDS011;20564;42.902;25.336;2023-03-14T09:59:56;3.20;;;1.38;;
34296;SDS011;20564;42.902;25.336;2023-03-14T10:02:52;2.30;;;0.93;;
34296;SDS011;20564;42.902;25.336;2023-03-14T10:05:23;1.02;;;0.65;;
34296;SDS011;20564;42.902;25.336;2023-03-14T10:08:02;3.30;;;1.75;;
34296;SDS011;20564;42.902;25.336;2023-03-14T10:10:32;3.85;;;1.55;;
34296;SDS011;20564;42.902;25.336;2023-03-14T10:15:50;5.75;;;1.30;;
34296;SDS011;20564;42.902;25.336;2023-03-14T10:18:24;4.40;;;1.30;;
34296;SDS011;20564;42.902;25.336;2023-03-14T10:21:28;1.63;;;0.75;;
34296;SDS011;20564;42.902;25.336;2023-03-14T10:27:21;2.55;;;0.70;;
34296;SDS011;20564;42.902;25.336;2023-03-14T10:29:58;1.85;;;0.40;;
34296;SDS011;20564;42.902;25.336;2023-03-14T10:32:38;3.65;;;1.00;;
34296;SDS011;20564;42.902;25.336;2023-03-14T10:37:59;5.47;;;3.08;;
34296;SDS011;20564;42.902;25.336;2023-03-14T10:40:39;2.90;;;1.17;;
34296;SDS011;20564;42.902;25.336;2023-03-14T10:43:23;1.73;;;0.57;;
34296;SDS011;20564;42.902;25.336;2023-03-14T10:45:59;1.55;;;0.77;;
34296;SDS011;20564;42.902;25.336;2023-03-14T10:48:37;1.27;;;0.50;;
34296;SDS011;20564;42.902;25.336;2023-03-14T10:51:11;3.65;;;1.90;;
34296;SDS011;20564;42.902;25.336;2023-03-14T10:54:09;1.27;;;0.85;;
34296;SDS011;20564;42.902;25.336;2023-03-14T10:56:50;1.95;;;0.95;;
34296;SDS011;20564;42.902;25.336;2023-03-14T10:59:27;1.55;;;1.00;;
34296;SDS011;20564;42.902;25.336;2023-03-14T11:02:12;4.85;;;2.50;;
34296;SDS011;20564;42.902;25.336;2023-03-14T11:09:58;1.25;;;0.60;;
34296;SDS011;20564;42.902;25.336;2023-03-14T11:16:29;1.88;;;0.93;;
34296;SDS011;20564;42.902;25.336;2023-03-14T11:22:10;1.75;;;0.68;;
34296;SDS011;20564;42.902;25.336;2023-03-14T11:27:48;2.63;;;1.02;;
34296;SDS011;20564;42.902;25.336;2023-03-14T11:30:35;4.85;;;2.20;;
34296;SDS011;20564;42.902;25.336;2023-03-14T11:33:24;6.43;;;2.25;;
34296;SDS011;20564;42.902;25.336;2023-03-14T11:38:51;4.30;;;1.10;;
34296;SDS011;20564;42.902;25.336;2023-03-14T11:41:32;0.38;;;0.30;;
34296;SDS011;20564;42.902;25.336;2023-03-14T11:47:29;3.42;;;1.30;;
34296;SDS011;20564;42.902;25.336;2023-03-14T11:55:24;2.72;;;0.60;;
34296;SDS011;20564;42.902;25.336;2023-03-14T11:57:56;4.27;;;0.70;;
34296;SDS011;20564;42.902;25.336;2023-03-14T12:00:34;5.13;;;1.10;;
34296;SDS011;20564;42.902;25.336;2023-03-14T12:08:56;4.65;;;1.45;;
34296;SDS011;20564;42.902;25.336;2023-03-14T12:14:02;2.30;;;0.82;;
34296;SDS011;20564;42.902;25.336;2023-03-14T12:16:39;0.43;;;0.30;;
34296;SDS011;20564;42.902;25.336;2023-03-14T12:21:51;3.47;;;1.00;;
34296;SDS011;20564;42.902;25.336;2023-03-14T12:24:24;2.15;;;0.70;;
34296;SDS011;20564;42.902;25.336;2023-03-14T12:26:59;1.55;;;0.60;;
34296;SDS011;20564;42.902;25.336;2023-03-14T12:29:56;1.75;;;0.75;;
34296;SDS011;20564;42.902;25.336;2023-03-14T12:32:30;1.10;;;0.50;;
34296;SDS011;20564;42.902;25.336;2023-03-14T12:35:34;0.80;;;0.43;;
34296;SDS011;20564;42.902;25.336;2023-03-14T12:38:03;1.25;;;0.52;;
34296;SDS011;20564;42.902;25.336;2023-03-14T12:40:37;1.73;;;0.40;;
34296;SDS011;20564;42.902;25.336;2023-03-14T12:43:29;1.80;;;0.65;;
34296;SDS011;20564;42.902;25.336;2023-03-14T12:49:04;1.25;;;0.60;;
34296;SDS011;20564;42.902;25.336;2023-03-14T12:59:57;1.83;;;0.60;;
34296;SDS011;20564;42.902;25.336;2023-03-14T13:02:46;1.75;;;0.88;;
34296;SDS011;20564;42.902;25.336;2023-03-14T13:05:17;3.35;;;1.15;;
34296;SDS011;20564;42.902;25.336;2023-03-14T13:10:23;2.63;;;0.73;;
34296;SDS011;20564;42.902;25.336;2023-03-14T13:12:55;1.73;;;0.80;;
34296;SDS011;20564;42.902;25.336;2023-03-14T13:15:33;2.47;;;0.50;;
34296;SDS011;20564;42.902;25.336;2023-03-14T13:20:45;2.45;;;0.80;;
34296;SDS011;20564;42.902;25.336;2023-03-14T13:23:30;3.47;;;0.80;;
34296;SDS011;20564;42.902;25.336;2023-03-14T13:26:00;2.20;;;0.80;;
34296;SDS011;20564;42.902;25.336;2023-03-14T13:28:30;2.20;;;0.88;;
34296;SDS011;20564;42.902;25.336;2023-03-14T13:31:02;2.20;;;0.98;;
34296;SDS011;20564;42.902;25.336;2023-03-14T13:33:32;2.03;;;0.98;;
34296;SDS011;20564;42.902;25.336;2023-03-14T13:36:02;4.35;;;1.58;;
34296;SDS011;20564;42.902;25.336;2023-03-14T13:38:32;3.33;;;1.00;;
34296;SDS011;20564;42.902;25.336;2023-03-14T13:41:07;2.65;;;0.80;;
34296;SDS011;20564;42.902;25.336;2023-03-14T13:43:40;1.73;;;0.55;;
34296;SDS011;20564;42.902;25.336;2023-03-14T13:46:22;2.47;;;0.93;;
34296;SDS011;20564;42.902;25.336;2023-03-14T13:48:53;1.85;;;0.85;;
34296;SDS011;20564;42.902;25.336;2023-03-14T13:51:24;2.80;;;1.23;;
34296;SDS011;20564;42.902;25.336;2023-03-14T13:53:58;1.50;;;0.60;;
34296;SDS011;20564;42.902;25.336;2023-03-14T13:56:33;2.00;;;0.65;;
34296;SDS011;20564;42.902;25.336;2023-03-14T13:59:27;2.97;;;0.60;;
34296;SDS011;20564;42.902;25.336;2023-03-14T14:02:13;2.05;;;0.60;;
34296;SDS011;20564;42.902;25.336;2023-03-14T14:04:44;1.13;;;0.60;;
34296;SDS011;20564;42.902;25.336;2023-03-14T14:07:15;2.95;;;0.68;;
34296;SDS011;20564;42.902;25.336;2023-03-14T14:09:47;1.23;;;0.70;;
34296;SDS011;20564;42.902;25.336;2023-03-14T14:12:26;3.33;;;0.93;;
34296;SDS011;20564;42.902;25.336;2023-03-14T14:15:02;3.13;;;0.52;;
34296;SDS011;20564;42.902;25.336;2023-03-14T14:17:39;1.60;;;0.70;;
34296;SDS011;20564;42.902;25.336;2023-03-14T14:20:18;1.30;;;0.63;;
34296;SDS011;20564;42.902;25.336;2023-03-14T14:23:13;15.73;;;6.45;;
34296;SDS011;20564;42.902;25.336;2023-03-14T14:25:52;7.15;;;2.65;;
34296;SDS011;20564;42.902;25.336;2023-03-14T14:28:31;4.00;;;1.35;;
34296;SDS011;20564;42.902;25.336;2023-03-14T14:33:41;1.55;;;0.60;;
34296;SDS011;20564;42.902;25.336;2023-03-14T14:36:19;5.03;;;1.45;;
34296;SDS011;20564;42.902;25.336;2023-03-14T14:38:54;5.68;;;0.80;;
34296;SDS011;20564;42.902;25.336;2023-03-14T14:41:29;6.18;;;2.53;;
34296;SDS011;20564;42.902;25.336;2023-03-14T14:43:59;3.05;;;1.27;;
34296;SDS011;20564;42.902;25.336;2023-03-14T14:46:28;2.30;;;1.10;;
34296;SDS011;20564;42.902;25.336;2023-03-14T14:49:11;1.80;;;0.80;;
34296;SDS011;20564;42.902;25.336;2023-03-14T14:51:51;3.83;;;1.70;;
34296;SDS011;20564;42.902;25.336;2023-03-14T14:54:31;2.70;;;1.33;;
34296;SDS011;20564;42.902;25.336;2023-03-14T14:57:03;0.98;;;0.63;;
34296;SDS011;20564;42.902;25.336;2023-03-14T14:59:40;2.42;;;0.82;;
34296;SDS011;20564;42.902;25.336;2023-03-14T15:03:12;1.55;;;0.70;;
34296;SDS011;20564;42.902;25.336;2023-03-14T15:05:52;2.00;;;0.80;;
34296;SDS011;20564;42.902;25.336;2023-03-14T15:08:23;2.05;;;1.05;;
34296;SDS011;20564;42.902;25.336;2023-03-14T15:11:08;6.75;;;1.42;;
34296;SDS011;20564;42.902;25.336;2023-03-14T15:13:45;4.10;;;1.20;;
34296;SDS011;20564;42.902;25.336;2023-03-14T15:16:15;3.38;;;1.77;;
34296;SDS011;20564;42.902;25.336;2023-03-14T15:19:19;3.53;;;1.65;;
34296;SDS011;20564;42.902;25.336;2023-03-14T15:21:54;2.17;;;0.73;;
34296;SDS011;20564;42.902;25.336;2023-03-14T15:24:22;2.15;;;0.93;;
34296;SDS011;20564;42.902;25.336;2023-03-14T15:27:04;4.28;;;1.73;;
34296;SDS011;20564;42.902;25.336;2023-03-14T15:29:36;2.33;;;1.02;;
34296;SDS011;20564;42.902;25.336;2023-03-14T15:32:05;3.35;;;1.80;;
34296;SDS011;20564;42.902;25.336;2023-03-14T15:34:34;3.92;;;1.70;;
34296;SDS011;20564;42.902;25.336;2023-03-14T15:37:04;1.75;;;0.70;;
34296;SDS011;20564;42.902;25.336;2023-03-14T15:39:42;4.25;;;1.30;;
34296;SDS011;20564;42.902;25.336;2023-03-14T15:42:10;2.00;;;0.70;;
34296;SDS011;20564;42.902;25.336;2023-03-14T15:44:40;9.05;;;1.13;;
34296;SDS011;20564;42.902;25.336;2023-03-14T15:47:08;2.47;;;1.08;;
34296;SDS011;20564;42.902;25.336;2023-03-14T15:49:46;11.20;;;5.28;;
34296;SDS011;20564;42.902;25.336;2023-03-14T15:52:20;22.67;;;11.60;;
34296;SDS011;20564;42.902;25.336;2023-03-14T15:54:50;12.20;;;6.18;;
34296;SDS011;20564;42.902;25.336;2023-03-14T15:57:16;5.68;;;2.17;;
34296;SDS011;20564;42.902;25.336;2023-03-14T15:59:43;5.15;;;2.05;;
34296;SDS011;20564;42.902;25.336;2023-03-14T16:02:13;3.20;;;1.88;;
34296;SDS011;20564;42.902;25.336;2023-03-14T16:04:41;2.97;;;1.13;;
34296;SDS011;20564;42.902;25.336;2023-03-14T16:07:09;1.75;;;0.65;;
34296;SDS011;20564;42.902;25.336;2023-03-14T16:09:36;3.00;;;1.65;;
34296;SDS011;20564;42.902;25.336;2023-03-14T16:12:04;3.88;;;1.20;;
34296;SDS011;20564;42.902;25.336;2023-03-14T16:14:39;11.25;;;5.30;;
34296;SDS011;20564;42.902;25.336;2023-03-14T16:17:17;19.45;;;8.90;;
34296;SDS011;20564;42.902;25.336;2023-03-14T16:19:46;24.58;;;15.75;;
34296;SDS011;20564;42.902;25.336;2023-03-14T16:22:18;15.20;;;6.10;;
34296;SDS011;20564;42.902;25.336;2023-03-14T16:24:45;7.45;;;3.30;;
34296;SDS011;20564;42.902;25.336;2023-03-14T16:27:13;9.30;;;4.07;;
34296;SDS011;20564;42.902;25.336;2023-03-14T16:29:41;10.82;;;5.22;;
34296;SDS011;20564;42.902;25.336;2023-03-14T16:32:08;12.82;;;6.00;;
34296;SDS011;20564;42.902;25.336;2023-03-14T16:34:39;16.77;;;7.00;;
34296;SDS011;20564;42.902;25.336;2023-03-14T16:37:09;20.13;;;9.25;;
34296;SDS011;20564;42.902;25.336;2023-03-14T16:42:24;4.40;;;1.95;;
34296;SDS011;20564;42.902;25.336;2023-03-14T16:44:52;3.80;;;1.25;;
34296;SDS011;20564;42.902;25.336;2023-03-14T16:47:19;3.13;;;1.10;;
34296;SDS011;20564;42.902;25.336;2023-03-14T16:49:46;2.20;;;0.90;;
34296;SDS011;20564;42.902;25.336;2023-03-14T16:52:16;2.15;;;1.05;;
34296;SDS011;20564;42.902;25.336;2023-03-14T16:54:44;6.38;;;2.40;;
34296;SDS011;20564;42.902;25.336;2023-03-14T16:57:12;6.38;;;3.13;;